Time;durP1;ratioP1;P1;durP2;ratioP2;P2;SDS_P1;SDS_P2;PMS_P1;PMS_P2;Temp;Humidity;BMP_temperature;BMP_pressure;BME280_temperature;BME280_humidity;BME280_pressure;Samples;Min_cycle;Max_cycle;Signal;HPM_P1;HPM_P2
2022/10/12 00:02:10;;;;;;;3.28;0.85;;;17.90;99.90;;;;;;4938470;29;20646;-75
2022/10/12 00:04:41;;;;;;;3.10;0.52;;;17.90;99.90;;;;;;4938006;29;20236;-76
2022/10/12 00:07:14;;;;;;;5.80;0.90;;;17.90;99.90;;;;;;4938337;29;20194;-72
2022/10/12 00:09:45;;;;;;;2.83;0.93;;;18.00;99.90;;;;;;4938151;29;20213;-77
2022/10/12 00:12:16;;;;;;;6.97;0.80;;;18.00;99.90;;;;;;4938187;29;20190;-72
2022/10/12 00:14:46;;;;;;;2.13;0.60;;;18.00;99.90;;;;;;4938366;29;20186;-78
2022/10/12 00:17:17;;;;;;;1.67;0.60;;;18.00;99.90;;;;;;4938035;29;20206;-76
2022/10/12 00:19:48;;;;;;;2.20;0.70;;;17.90;99.90;;;;;;4930166;29;20228;-76
2022/10/12 00:22:21;;;;;;;2.15;0.88;;;17.80;99.90;;;;;;4938109;29;20190;-74
2022/10/12 00:24:53;;;;;;;2.05;0.80;;;17.70;99.90;;;;;;4930840;29;20186;-75
2022/10/12 00:27:24;;;;;;;3.33;0.90;;;17.60;99.90;;;;;;4938044;29;20196;-74
2022/10/12 00:29:56;;;;;;;4.32;0.90;;;17.60;99.90;;;;;;4941353;29;20206;-75
2022/10/12 00:32:27;;;;;;;1.17;0.60;;;17.70;99.90;;;;;;4934664;29;20194;-75
2022/10/12 00:34:57;;;;;;;2.20;0.85;;;17.60;99.90;;;;;;4940515;29;20223;-74
2022/10/12 00:37:30;;;;;;;1.92;0.90;;;17.60;99.90;;;;;;4940810;29;20233;-76
2022/10/12 00:40:01;;;;;;;2.55;1.00;;;17.70;99.90;;;;;;4933406;29;20190;-77
2022/10/12 00:42:32;;;;;;;3.05;0.73;;;17.70;99.90;;;;;;4937678;29;20186;-77
2022/10/12 00:45:03;;;;;;;5.97;0.93;;;17.80;99.90;;;;;;4937775;29;20186;-75
2022/10/12 00:47:37;;;;;;;5.57;1.27;;;17.80;99.90;;;;;;4937203;29;20194;-74
2022/10/12 00:50:12;;;;;;;2.22;1.02;;;17.70;99.90;;;;;;4937869;29;20221;-76
2022/10/12 00:53:00;;;;;;;3.60;1.00;;;17.60;99.90;;;;;;4938228;29;20198;-76
2022/10/12 00:55:34;;;;;;;2.08;0.98;;;17.50;99.90;;;;;;4938014;29;20642;-77
2022/10/12 00:58:07;;;;;;;2.42;1.00;;;17.40;99.90;;;;;;4937680;29;20642;-75
2022/10/12 01:00:39;;;;;;;1.42;1.00;;;17.50;99.90;;;;;;4937254;29;20547;-75
2022/10/12 01:03:11;;;;;;;5.15;0.90;;;17.50;99.90;;;;;;4937644;29;20197;-75
2022/10/12 01:05:43;;;;;;;2.53;0.82;;;17.60;99.90;;;;;;4937490;29;20198;-74
2022/10/12 01:08:16;;;;;;;2.95;0.82;;;17.80;99.90;;;;;;4937422;29;20216;-74
2022/10/12 01:10:46;;;;;;;2.92;1.00;;;17.90;99.90;;;;;;4937205;29;20221;-74
2022/10/12 01:13:18;;;;;;;4.25;1.00;;;17.90;99.90;;;;;;4937303;29;20196;-75
2022/10/12 01:15:57;;;;;;;3.95;0.85;;;17.90;99.90;;;;;;4936661;29;20200;-78
2022/10/12 01:18:33;;;;;;;4.57;0.80;;;17.90;99.90;;;;;;4937169;29;20545;-78
2022/10/12 01:21:09;;;;;;;2.65;0.85;;;17.90;99.90;;;;;;4937450;29;20549;-75
2022/10/12 01:24:10;;;;;;;2.35;0.60;;;17.90;99.90;;;;;;4936865;29;20196;-76
2022/10/12 01:27:24;;;;;;;4.88;0.70;;;17.90;99.90;;;;;;4933706;29;20198;-76
2022/10/12 01:30:26;;;;;;;1.17;0.70;;;17.90;99.90;;;;;;4897816;29;20204;-78
2022/10/12 01:33:14;;;;;;;1.70;0.70;;;17.80;99.90;;;;;;4937031;29;20666;-75
2022/10/12 01:35:53;;;;;;;2.40;0.60;;;17.90;99.90;;;;;;4957598;23;20240;-73
2022/10/12 01:38:47;;;;;;;4.35;0.77;;;18.00;99.90;;;;;;4972391;28;20212;-72
2022/10/12 01:41:22;;;;;;;2.03;0.68;;;18.10;99.90;;;;;;4971352;28;20184;-73
2022/10/12 01:43:54;;;;;;;3.22;0.77;;;18.20;99.90;;;;;;4970977;28;20203;-72
2022/10/12 01:46:48;;;;;;;2.67;0.60;;;18.30;99.90;;;;;;4972214;28;20564;-73
2022/10/12 01:49:20;;;;;;;1.70;0.60;;;18.40;99.90;;;;;;4971240;28;20192;-73
2022/10/12 01:52:19;;;;;;;3.50;0.40;;;18.60;99.90;;;;;;4973400;28;20224;-73
2022/10/12 01:55:12;;;;;;;2.47;0.57;;;18.60;99.90;;;;;;4969936;28;20193;-73
2022/10/12 01:57:55;;;;;;;1.65;0.45;;;18.70;99.90;;;;;;4969991;28;20200;-75
2022/10/12 02:00:26;;;;;;;5.20;0.73;;;19.00;99.90;;;;;;4971333;28;20279;-75
2022/10/12 02:03:11;;;;;;;2.47;1.17;;;19.20;99.90;;;;;;4971299;28;20194;-74
2022/10/12 02:05:50;;;;;;;1.23;0.50;;;19.30;99.90;;;;;;4973151;28;20199;-74
2022/10/12 02:08:26;;;;;;;1.95;0.65;;;19.30;99.90;;;;;;4967104;28;20644;-74
2022/10/12 02:11:00;;;;;;;2.47;0.50;;;19.20;99.90;;;;;;4963871;28;20255;-75
2022/10/12 02:13:36;;;;;;;2.97;0.50;;;19.10;99.90;;;;;;4973632;28;20195;-74
2022/10/12 02:16:12;;;;;;;2.30;0.55;;;19.10;99.90;;;;;;4973058;28;20187;-75
2022/10/12 02:18:47;;;;;;;1.77;0.50;;;19.00;99.90;;;;;;4971173;28;20623;-74
2022/10/12 02:21:21;;;;;;;3.55;0.60;;;19.00;99.90;;;;;;4973406;28;20207;-74
2022/10/12 02:23:54;;;;;;;1.90;0.70;;;19.10;99.90;;;;;;4970579;28;20198;-75
2022/10/12 02:26:26;;;;;;;3.00;0.90;;;19.20;99.90;;;;;;4973648;28;20195;-74
2022/10/12 02:28:57;;;;;;;1.60;0.65;;;19.20;99.90;;;;;;4970538;28;20195;-76
2022/10/12 02:31:35;;;;;;;6.13;0.73;;;19.10;99.90;;;;;;4966869;28;20212;-76
2022/10/12 02:34:13;;;;;;;2.05;0.73;;;19.10;99.90;;;;;;4973898;28;20196;-75
2022/10/12 02:36:51;;;;;;;4.78;0.70;;;19.10;99.90;;;;;;4966017;28;20242;-75
2022/10/12 02:39:27;;;;;;;3.10;0.90;;;19.00;99.90;;;;;;4957854;28;20224;-74
2022/10/12 02:42:03;;;;;;;3.92;0.50;;;19.00;99.90;;;;;;4959376;28;20556;-75
2022/10/12 02:44:38;;;;;;;2.45;0.80;;;19.00;99.90;;;;;;4950682;28;20235;-75
2022/10/12 02:47:11;;;;;;;1.20;0.40;;;18.90;99.90;;;;;;4972949;28;20196;-75
2022/10/12 02:49:45;;;;;;;2.03;0.73;;;18.90;99.90;;;;;;4959904;28;20189;-74
2022/10/12 02:52:16;;;;;;;3.30;0.70;;;18.90;99.90;;;;;;4956726;28;20223;-75
2022/10/12 02:54:47;;;;;;;5.32;0.75;;;19.00;99.90;;;;;;4961697;28;20192;-73
2022/10/12 02:57:18;;;;;;;4.80;0.85;;;19.10;99.90;;;;;;4963808;28;20279;-75
2022/10/12 02:59:49;;;;;;;1.15;0.45;;;19.20;99.90;;;;;;4960398;28;20230;-75
2022/10/12 03:02:20;;;;;;;1.67;0.70;;;19.10;99.90;;;;;;4973448;28;20196;-74
2022/10/12 03:04:53;;;;;;;3.25;0.60;;;19.10;99.90;;;;;;4968224;28;20196;-74
2022/10/12 03:07:24;;;;;;;1.23;0.50;;;19.10;99.90;;;;;;4962173;28;20232;-75
2022/10/12 03:09:55;;;;;;;2.58;0.70;;;19.20;99.90;;;;;;4960828;28;20198;-75
2022/10/12 03:12:26;;;;;;;2.78;0.73;;;19.10;99.90;;;;;;4955850;28;20301;-77
2022/10/12 03:14:57;;;;;;;2.92;0.70;;;19.10;99.90;;;;;;4955101;28;20192;-74
2022/10/12 03:17:28;;;;;;;3.92;0.60;;;19.10;99.90;;;;;;4968051;28;20212;-75
2022/10/12 03:20:01;;;;;;;2.90;0.70;;;19.20;99.90;;;;;;4964320;28;20196;-75
2022/10/12 03:22:31;;;;;;;4.25;0.50;;;19.20;99.90;;;;;;4958829;28;20218;-73
2022/10/12 03:25:02;;;;;;;1.67;0.52;;;19.10;99.90;;;;;;4958766;29;20199;-73
2022/10/12 03:27:33;;;;;;;2.35;0.50;;;19.10;99.90;;;;;;4958579;29;20197;-73
2022/10/12 03:30:04;;;;;;;3.20;0.70;;;19.00;99.90;;;;;;4957088;28;20197;-73
2022/10/12 03:32:35;;;;;;;3.67;0.65;;;19.00;99.90;;;;;;4960267;28;20881;-73
2022/10/12 03:35:08;;;;;;;2.33;0.47;;;19.00;99.90;;;;;;4962524;28;20547;-73
2022/10/12 03:37:39;;;;;;;3.60;0.57;;;18.90;99.90;;;;;;4962813;28;20199;-73
2022/10/12 03:40:11;;;;;;;0.40;0.40;;;18.90;99.90;;;;;;4976577;28;20199;-72
2022/10/12 03:42:42;;;;;;;3.28;0.65;;;18.90;99.90;;;;;;4959349;28;20197;-72
2022/10/12 03:45:13;;;;;;;4.28;0.50;;;18.90;99.90;;;;;;4973249;28;20192;-72
2022/10/12 03:47:44;;;;;;;5.05;0.60;;;19.00;99.90;;;;;;4953582;28;20192;-72
2022/10/12 03:50:17;;;;;;;2.42;0.68;;;19.10;99.90;;;;;;4962512;28;20189;-73
2022/10/12 03:52:48;;;;;;;3.90;0.70;;;19.20;99.90;;;;;;4950727;28;20684;-73
2022/10/12 03:55:19;;;;;;;1.55;0.50;;;19.20;99.90;;;;;;4973165;28;20195;-73
2022/10/12 03:57:49;;;;;;;3.35;0.60;;;19.10;99.90;;;;;;4954371;28;20275;-72
2022/10/12 04:00:20;;;;;;;4.88;0.60;;;19.20;99.90;;;;;;4976340;28;20189;-73
2022/10/12 04:02:51;;;;;;;1.40;0.60;;;19.20;99.90;;;;;;4950886;28;20193;-72
2022/10/12 04:05:24;;;;;;;8.95;0.85;;;19.30;99.90;;;;;;4969550;28;20189;-74
2022/10/12 04:07:55;;;;;;;1.85;0.40;;;19.30;99.90;;;;;;4954959;28;20192;-76
2022/10/12 04:10:26;;;;;;;2.47;0.50;;;19.30;99.90;;;;;;4967646;28;20546;-75
2022/10/12 04:12:58;;;;;;;4.43;0.57;;;19.30;99.90;;;;;;4957431;29;20223;-75
2022/10/12 04:15:29;;;;;;;2.67;0.60;;;19.30;99.90;;;;;;4957750;28;20185;-75
2022/10/12 04:18:00;;;;;;;1.77;0.40;;;19.30;99.90;;;;;;4962209;28;20192;-75
2022/10/12 04:20:33;;;;;;;1.98;0.40;;;19.30;99.90;;;;;;4967768;28;20188;-74
2022/10/12 04:23:04;;;;;;;4.38;0.68;;;19.30;99.90;;;;;;4965397;28;20197;-75
2022/10/12 04:25:34;;;;;;;5.15;0.70;;;19.30;99.90;;;;;;4964738;28;20197;-76
2022/10/12 04:28:05;;;;;;;6.07;0.63;;;19.40;99.90;;;;;;4956675;28;20195;-75
2022/10/12 04:30:36;;;;;;;5.50;0.60;;;19.40;99.90;;;;;;4952400;28;20809;-75
2022/10/12 04:33:07;;;;;;;1.90;0.60;;;19.40;99.90;;;;;;4976166;28;20212;-76
2022/10/12 04:35:40;;;;;;;4.20;0.40;;;19.40;99.90;;;;;;4958744;28;20239;-75
2022/10/12 04:38:11;;;;;;;2.38;0.30;;;19.50;99.90;;;;;;4951989;28;20184;-75
2022/10/12 04:40:42;;;;;;;1.90;0.40;;;19.50;99.90;;;;;;4959926;28;20231;-77
2022/10/12 04:43:13;;;;;;;1.23;0.40;;;19.50;99.90;;;;;;4972508;28;20327;-73
2022/10/12 04:45:45;;;;;;;3.88;0.85;;;19.60;99.90;;;;;;4975405;28;20556;-74
2022/10/12 04:48:15;;;;;;;3.88;0.60;;;19.60;99.90;;;;;;4962634;28;20191;-75
2022/10/12 04:50:48;;;;;;;3.90;0.52;;;19.50;99.90;;;;;;4964711;28;20591;-75
2022/10/12 04:53:19;;;;;;;2.05;0.50;;;19.50;99.90;;;;;;4965351;28;20193;-76
2022/10/12 04:55:50;;;;;;;1.67;0.52;;;19.50;99.90;;;;;;4957248;28;20280;-74
2022/10/12 04:58:21;;;;;;;3.47;0.70;;;19.50;99.90;;;;;;4958025;28;20566;-75
2022/10/12 05:00:52;;;;;;;1.50;0.40;;;19.50;99.90;;;;;;4969349;28;20202;-75
2022/10/12 05:03:23;;;;;;;4.57;0.50;;;19.50;99.90;;;;;;4973647;28;20193;-73
2022/10/12 05:05:56;;;;;;;5.47;0.50;;;19.50;99.90;;;;;;4970205;28;20196;-73
2022/10/12 05:08:26;;;;;;;4.30;0.65;;;19.40;99.90;;;;;;4971573;28;20192;-73
2022/10/12 05:10:58;;;;;;;3.47;0.68;;;19.40;99.90;;;;;;4969489;28;20199;-73
2022/10/12 05:13:29;;;;;;;3.03;0.50;;;19.40;99.90;;;;;;4958235;28;20244;-73
2022/10/12 05:16:00;;;;;;;3.03;0.50;;;19.40;99.90;;;;;;4964390;28;20753;-73
2022/10/12 05:18:31;;;;;;;3.97;0.75;;;19.30;99.90;;;;;;4958404;28;20208;-73
2022/10/12 05:21:04;;;;;;;2.38;0.43;;;19.40;99.90;;;;;;4961967;28;20189;-72
2022/10/12 05:23:35;;;;;;;2.63;0.55;;;19.30;99.90;;;;;;4963523;28;20572;-73
2022/10/12 05:26:06;;;;;;;2.70;0.40;;;19.30;99.90;;;;;;4950542;28;20201;-73
2022/10/12 05:28:36;;;;;;;0.90;0.50;;;19.30;99.90;;;;;;4964593;28;20197;-73
2022/10/12 05:31:07;;;;;;;3.47;0.50;;;19.30;99.90;;;;;;4951235;29;20195;-73
2022/10/12 05:33:38;;;;;;;3.78;0.50;;;19.30;99.90;;;;;;4956272;28;20554;-72
2022/10/12 05:36:19;;;;;;;3.78;0.60;;;19.30;99.90;;;;;;4957659;28;20239;-74
2022/10/12 05:38:50;;;;;;;2.72;0.70;;;19.30;99.90;;;;;;4962138;28;20196;-73
2022/10/12 05:41:21;;;;;;;3.33;0.60;;;19.30;99.90;;;;;;4956914;28;20185;-73
2022/10/12 05:43:52;;;;;;;3.47;0.60;;;19.20;99.90;;;;;;4952257;28;20185;-74
2022/10/12 05:46:26;;;;;;;2.35;0.55;;;19.20;99.90;;;;;;4966111;28;20644;-72
2022/10/12 05:48:57;;;;;;;4.57;0.70;;;19.10;99.90;;;;;;4967725;28;20588;-74
2022/10/12 05:51:30;;;;;;;2.08;0.50;;;19.10;99.90;;;;;;4966197;28;20191;-73
2022/10/12 05:54:01;;;;;;;3.28;0.68;;;19.10;99.90;;;;;;4960658;28;20193;-72
2022/10/12 05:56:31;;;;;;;3.22;0.60;;;19.10;99.90;;;;;;4962720;28;20193;-72
2022/10/12 05:59:02;;;;;;;3.97;0.60;;;19.00;99.90;;;;;;4960369;28;20189;-74
2022/10/12 06:01:33;;;;;;;2.15;0.60;;;19.10;99.90;;;;;;4966560;28;20188;-72
2022/10/12 06:04:04;;;;;;;3.83;0.70;;;19.10;99.90;;;;;;4969466;28;20189;-73
2022/10/12 06:06:37;;;;;;;3.28;0.70;;;19.10;99.90;;;;;;4970843;28;20192;-72
2022/10/12 06:09:08;;;;;;;6.97;0.80;;;19.00;99.90;;;;;;4955986;28;20196;-72
2022/10/12 06:11:39;;;;;;;3.60;1.15;;;19.00;99.90;;;;;;4956796;28;20220;-73
2022/10/12 06:14:10;;;;;;;3.47;0.60;;;18.90;99.90;;;;;;4969797;28;20189;-72
2022/10/12 06:16:41;;;;;;;5.05;0.70;;;18.90;99.90;;;;;;4962503;28;20201;-75
2022/10/12 06:19:14;;;;;;;2.97;0.55;;;18.80;99.90;;;;;;4963299;28;20292;-76
2022/10/12 06:21:47;;;;;;;3.45;0.70;;;18.80;99.90;;;;;;4970754;28;20200;-74
2022/10/12 06:24:17;;;;;;;2.90;0.77;;;18.80;99.90;;;;;;4965505;28;20195;-74
2022/10/12 06:26:48;;;;;;;1.85;0.50;;;18.70;99.90;;;;;;4964383;28;20199;-77
2022/10/12 06:29:22;;;;;;;3.63;0.50;;;18.70;99.90;;;;;;4963044;28;20196;-76
2022/10/12 06:31:53;;;;;;;0.80;0.30;;;18.70;99.90;;;;;;4958655;28;20217;-75
2022/10/12 06:34:24;;;;;;;2.90;0.40;;;18.60;99.90;;;;;;4960089;28;20185;-76
2022/10/12 06:36:56;;;;;;;4.72;0.60;;;18.60;99.90;;;;;;4966156;28;20232;-75
2022/10/12 06:39:27;;;;;;;1.63;0.60;;;18.50;99.90;;;;;;4962895;28;20201;-74
2022/10/12 06:41:58;;;;;;;5.88;0.90;;;18.50;99.90;;;;;;4952291;28;20201;-75
2022/10/12 06:44:29;;;;;;;4.63;0.50;;;18.50;99.90;;;;;;4967916;28;20205;-75
2022/10/12 06:47:00;;;;;;;2.28;0.52;;;18.50;99.90;;;;;;4955373;28;20543;-73
2022/10/12 06:49:31;;;;;;;3.75;0.70;;;18.50;99.90;;;;;;4955147;28;20196;-75
2022/10/12 06:52:04;;;;;;;4.93;0.52;;;18.40;99.90;;;;;;4962542;28;20213;-74
2022/10/12 06:54:34;;;;;;;3.83;0.68;;;18.40;99.90;;;;;;4950862;28;20197;-73
2022/10/12 06:57:07;;;;;;;5.40;0.70;;;18.40;99.90;;;;;;4962583;28;20197;-73
2022/10/12 06:59:38;;;;;;;7.35;0.98;;;18.40;99.90;;;;;;4963131;28;20196;-74
2022/10/12 07:02:10;;;;;;;6.60;0.60;;;18.40;99.90;;;;;;4973505;28;20188;-73
2022/10/12 07:04:41;;;;;;;1.90;0.70;;;18.30;99.90;;;;;;4966276;28;20189;-73
2022/10/12 07:07:14;;;;;;;4.18;0.90;;;18.30;99.90;;;;;;4958180;28;20196;-74
2022/10/12 07:09:45;;;;;;;3.60;0.60;;;18.20;99.90;;;;;;4965896;28;20204;-73
2022/10/12 07:12:16;;;;;;;3.55;0.90;;;18.20;99.90;;;;;;4949089;28;20271;-73
2022/10/12 07:14:47;;;;;;;3.00;0.60;;;18.20;99.90;;;;;;4973743;28;20683;-73
2022/10/12 07:17:18;;;;;;;5.72;0.70;;;18.20;99.90;;;;;;4947460;28;20196;-73
2022/10/12 07:19:49;;;;;;;3.90;0.65;;;18.10;99.90;;;;;;4962006;28;20192;-75
2022/10/12 07:22:22;;;;;;;4.10;0.77;;;18.10;99.90;;;;;;4951008;28;20196;-73
2022/10/12 07:24:53;;;;;;;3.42;1.00;;;18.10;99.90;;;;;;4959498;28;20199;-75
2022/10/12 07:27:24;;;;;;;2.83;0.70;;;18.10;99.90;;;;;;4954941;28;20185;-75
2022/10/12 07:29:54;;;;;;;2.58;0.65;;;18.00;99.90;;;;;;4953409;28;20197;-76
2022/10/12 07:32:25;;;;;;;3.78;1.10;;;18.00;99.90;;;;;;4951161;28;20204;-77
2022/10/12 07:34:56;;;;;;;4.18;0.80;;;18.10;99.90;;;;;;4989019;23;20299;-72
2022/10/12 07:37:29;;;;;;;2.55;0.70;;;18.00;99.90;;;;;;4963484;28;20676;-72
2022/10/12 07:40:00;;;;;;;3.75;0.90;;;18.00;99.90;;;;;;4964939;28;20201;-72
2022/10/12 07:42:31;;;;;;;6.55;0.80;;;18.00;99.90;;;;;;4956487;28;20196;-72
2022/10/12 07:45:02;;;;;;;5.47;0.80;;;17.90;99.90;;;;;;4954664;28;20197;-72
2022/10/12 07:47:33;;;;;;;5.10;0.60;;;17.90;99.90;;;;;;4959481;28;20551;-72
2022/10/12 07:50:03;;;;;;;6.30;0.65;;;17.90;99.90;;;;;;4963758;28;20199;-72
2022/10/12 07:52:36;;;;;;;7.22;0.95;;;17.90;99.90;;;;;;4964712;28;20208;-75
2022/10/12 07:55:08;;;;;;;4.07;0.68;;;17.80;99.90;;;;;;4965437;28;20192;-74
2022/10/12 07:57:39;;;;;;;6.47;0.70;;;17.80;99.90;;;;;;4968356;28;20196;-73
2022/10/12 08:00:11;;;;;;;3.88;0.95;;;17.80;99.90;;;;;;4969452;28;20192;-72
2022/10/12 08:02:42;;;;;;;6.55;1.02;;;17.80;99.90;;;;;;4968028;28;20288;-72
2022/10/12 08:05:13;;;;;;;4.00;0.70;;;17.70;99.90;;;;;;4968270;28;20208;-72
2022/10/12 08:07:46;;;;;;;4.28;0.90;;;17.70;99.90;;;;;;4970468;28;20202;-72
2022/10/12 08:10:17;;;;;;;7.80;1.00;;;17.70;99.90;;;;;;4966540;28;20197;-72
2022/10/12 08:12:48;;;;;;;4.93;0.88;;;17.70;99.90;;;;;;4964027;28;20219;-73
2022/10/12 08:15:19;;;;;;;6.05;0.90;;;17.60;99.90;;;;;;4969367;28;20196;-72
2022/10/12 08:17:50;;;;;;;4.00;0.98;;;17.60;99.90;;;;;;4965658;28;20197;-73
2022/10/12 08:20:21;;;;;;;3.35;0.70;;;17.60;99.90;;;;;;4967306;28;20273;-73
2022/10/12 08:22:55;;;;;;;6.05;1.00;;;17.60;99.90;;;;;;4966853;28;20200;-72
2022/10/12 08:25:26;;;;;;;3.80;0.88;;;17.60;99.90;;;;;;4968133;28;20192;-75
2022/10/12 08:27:56;;;;;;;3.88;0.90;;;17.60;99.90;;;;;;4960039;28;20185;-72
2022/10/12 08:30:27;;;;;;;5.82;0.93;;;17.60;99.90;;;;;;4970536;28;20193;-73
2022/10/12 08:32:58;;;;;;;5.93;0.88;;;17.60;99.90;;;;;;4964553;28;20220;-72
2022/10/12 08:35:29;;;;;;;5.63;0.90;;;17.60;99.90;;;;;;4967140;28;20243;-72
2022/10/12 08:38:02;;;;;;;6.43;1.00;;;17.60;99.90;;;;;;4962503;28;20559;-72
2022/10/12 08:40:37;;;;;;;4.28;0.60;;;17.50;99.90;;;;;;4970790;28;20198;-72
2022/10/12 08:43:14;;;;;;;2.00;0.68;;;17.50;99.90;;;;;;4969051;28;20188;-73
2022/10/12 08:45:53;;;;;;;5.40;0.90;;;17.50;99.90;;;;;;4961723;28;20678;-73
2022/10/12 08:48:28;;;;;;;10.02;1.42;;;17.50;99.90;;;;;;4962631;28;20193;-72
2022/10/12 08:51:01;;;;;;;2.88;0.77;;;17.40;99.90;;;;;;4968706;28;20211;-72
2022/10/12 08:53:39;;;;;;;6.03;0.75;;;17.40;99.90;;;;;;4961604;28;20228;-73
2022/10/12 08:56:10;;;;;;;3.90;0.90;;;17.40;99.90;;;;;;4969839;28;20196;-72
2022/10/12 08:58:42;;;;;;;7.72;0.75;;;17.40;99.90;;;;;;4967437;28;20201;-72
2022/10/12 09:01:22;;;;;;;5.15;0.90;;;17.40;99.90;;;;;;4969400;28;20189;-72
2022/10/12 09:04:21;;;;;;;5.07;0.98;;;17.40;99.90;;;;;;4968557;28;20192;-72
2022/10/12 09:06:57;;;;;;;4.88;0.95;;;17.40;99.90;;;;;;4954221;28;20574;-72
2022/10/12 09:09:45;;;;;;;4.60;1.00;;;17.40;99.90;;;;;;4960095;28;20204;-75
2022/10/12 09:12:38;;;;;;;3.83;0.95;;;17.40;99.90;;;;;;4970931;28;20195;-72
2022/10/12 09:15:15;;;;;;;5.30;1.00;;;17.40;99.90;;;;;;4963928;28;20219;-73
2022/10/12 09:17:50;;;;;;;6.38;0.88;;;17.40;99.90;;;;;;4959324;28;20189;-72
2022/10/12 09:20:23;;;;;;;5.15;0.88;;;17.40;99.90;;;;;;4975483;28;20521;-72
2022/10/12 09:22:56;;;;;;;5.93;1.10;;;17.40;99.90;;;;;;4964862;28;20193;-72
2022/10/12 09:25:30;;;;;;;5.40;0.80;;;17.40;99.90;;;;;;4971793;28;20628;-72
2022/10/12 09:28:15;;;;;;;5.45;1.45;;;17.40;99.90;;;;;;4968094;28;20196;-71
2022/10/12 09:30:57;;;;;;;9.25;1.08;;;17.40;99.90;;;;;;4965689;28;20644;-73
2022/10/12 09:33:34;;;;;;;3.47;0.82;;;17.40;99.90;;;;;;4971462;28;20216;-73
2022/10/12 09:36:05;;;;;;;4.45;0.70;;;17.30;99.90;;;;;;4966464;28;20235;-72
2022/10/12 09:38:37;;;;;;;8.63;0.90;;;17.40;99.90;;;;;;4971017;28;20202;-81
2022/10/12 09:41:18;;;;;;;3.90;0.85;;;17.30;99.90;;;;;;4960973;28;20236;-75
2022/10/12 09:43:50;;;;;;;4.60;0.90;;;17.30;99.90;;;;;;4970342;28;20197;-83
2022/10/12 09:46:27;;;;;;;5.15;1.00;;;17.20;99.90;;;;;;4965567;28;20197;-73
2022/10/12 09:49:02;;;;;;;4.18;0.80;;;17.20;99.90;;;;;;4970837;28;20215;-73
2022/10/12 09:51:33;;;;;;;3.65;0.90;;;17.20;99.90;;;;;;4972700;28;20196;-73
2022/10/12 09:54:05;;;;;;;4.25;0.80;;;17.20;99.90;;;;;;4962718;28;20225;-73
2022/10/12 09:56:43;;;;;;;4.65;0.82;;;17.20;99.90;;;;;;4963315;28;20561;-73
2022/10/12 09:59:28;;;;;;;6.60;1.05;;;17.20;99.90;;;;;;4965021;28;20223;-75
2022/10/12 10:02:14;;;;;;;4.43;0.80;;;17.20;99.90;;;;;;4961444;28;20283;-78
2022/10/12 10:04:46;;;;;;;6.45;0.88;;;17.20;99.90;;;;;;4973346;28;20238;-77
2022/10/12 10:07:29;;;;;;;6.93;0.90;;;17.10;99.90;;;;;;4962891;28;20201;-74
2022/10/12 10:10:21;;;;;;;5.40;0.63;;;17.20;99.90;;;;;;4962943;28;20724;-75
2022/10/12 10:12:57;;;;;;;5.75;0.70;;;17.20;99.90;;;;;;4969071;28;20196;-69
2022/10/12 10:15:30;;;;;;;4.25;0.90;;;17.20;99.90;;;;;;4970480;28;20197;-72
2022/10/12 10:18:03;;;;;;;3.83;0.90;;;17.20;99.90;;;;;;4965325;28;20211;-81
2022/10/12 10:20:35;;;;;;;9.65;0.80;;;17.20;99.90;;;;;;4964597;28;20189;-72
2022/10/12 10:23:07;;;;;;;5.68;0.70;;;17.20;99.90;;;;;;4970081;28;20200;-72
2022/10/12 10:25:38;;;;;;;6.70;0.73;;;17.10;99.90;;;;;;4969982;28;20196;-72
2022/10/12 10:28:29;;;;;;;6.53;0.90;;;17.20;99.90;;;;;;4963436;28;20204;-72
2022/10/12 10:31:02;;;;;;;3.95;0.57;;;17.10;99.90;;;;;;4967824;28;20201;-73
2022/10/12 10:33:34;;;;;;;4.57;0.68;;;17.10;99.90;;;;;;4967187;28;20299;-74
2022/10/12 10:36:08;;;;;;;6.07;0.68;;;17.10;99.90;;;;;;4965851;28;20238;-72
2022/10/12 10:38:57;;;;;;;4.38;0.70;;;17.10;99.90;;;;;;4971869;28;20203;-72
2022/10/12 10:41:33;;;;;;;4.65;0.85;;;17.10;99.90;;;;;;4969804;28;20293;-72
2022/10/12 10:44:07;;;;;;;3.95;0.60;;;17.10;99.90;;;;;;4964215;28;20198;-72
2022/10/12 10:46:39;;;;;;;5.20;0.60;;;17.10;99.90;;;;;;4963881;28;20193;-75
2022/10/12 10:49:11;;;;;;;4.32;0.90;;;17.10;99.90;;;;;;4962173;28;20194;-72
2022/10/12 10:51:49;;;;;;;2.97;0.57;;;17.10;99.90;;;;;;4961711;28;20703;-73
2022/10/12 10:54:29;;;;;;;2.88;0.50;;;17.10;99.90;;;;;;4968316;28;20222;-73
2022/10/12 10:57:05;;;;;;;4.50;0.60;;;17.10;99.90;;;;;;4970130;28;20655;-72
2022/10/12 10:59:48;;;;;;;3.47;0.63;;;17.10;99.90;;;;;;4958261;28;20640;-72
2022/10/12 11:02:30;;;;;;;5.07;0.80;;;17.10;99.90;;;;;;4964856;28;20191;-72
2022/10/12 11:05:07;;;;;;;5.95;0.93;;;17.10;99.90;;;;;;4962978;28;20215;-72
2022/10/12 11:07:44;;;;;;;5.82;1.10;;;17.10;99.90;;;;;;4965256;28;20188;-73
2022/10/12 11:10:26;;;;;;;3.85;1.30;;;17.00;99.90;;;;;;4964208;28;20189;-72
2022/10/12 11:13:03;;;;;;;5.45;1.13;;;17.00;99.90;;;;;;4967779;28;20197;-72
2022/10/12 11:15:43;;;;;;;6.80;1.25;;;17.00;99.90;;;;;;4958475;28;20228;-72
2022/10/12 11:18:20;;;;;;;4.63;0.70;;;17.00;99.90;;;;;;4960212;28;20195;-72
2022/10/12 11:20:58;;;;;;;4.47;0.75;;;17.00;99.90;;;;;;4964496;28;20648;-73
2022/10/12 11:23:36;;;;;;;6.13;1.00;;;17.00;99.90;;;;;;4967017;28;20280;-73
2022/10/12 11:26:17;;;;;;;5.30;0.60;;;17.00;99.90;;;;;;4957500;28;20269;-73
2022/10/12 11:28:51;;;;;;;5.47;0.68;;;17.00;99.90;;;;;;4963903;28;20644;-72
2022/10/12 11:31:28;;;;;;;6.05;0.60;;;17.00;99.90;;;;;;4961152;28;20186;-72
2022/10/12 11:34:02;;;;;;;5.30;0.70;;;16.90;99.90;;;;;;4962241;28;20228;-72
2022/10/12 11:36:35;;;;;;;4.05;0.70;;;16.90;99.90;;;;;;4966811;28;20204;-72
2022/10/12 11:39:09;;;;;;;4.00;0.82;;;16.90;99.90;;;;;;4968310;28;20192;-72
2022/10/12 11:41:46;;;;;;;3.03;0.60;;;16.90;99.90;;;;;;4969208;28;20196;-73
2022/10/12 11:44:20;;;;;;;6.05;0.70;;;16.90;99.90;;;;;;4965648;28;20193;-72
2022/10/12 11:47:00;;;;;;;2.17;0.50;;;16.90;99.90;;;;;;4971378;28;20204;-73
2022/10/12 11:49:34;;;;;;;6.32;1.00;;;17.00;99.90;;;;;;4972096;28;20191;-73
2022/10/12 11:52:11;;;;;;;5.13;0.70;;;17.00;99.90;;;;;;4970920;28;20196;-72
2022/10/12 11:54:49;;;;;;;6.60;0.70;;;16.90;99.90;;;;;;4967771;28;20723;-75
2022/10/12 11:57:24;;;;;;;5.63;0.60;;;16.90;99.90;;;;;;4974652;28;20192;-72
2022/10/12 12:00:00;;;;;;;5.95;0.98;;;16.90;99.90;;;;;;4966574;28;20204;-72
2022/10/12 12:02:39;;;;;;;4.68;0.68;;;16.90;99.90;;;;;;4971131;28;20656;-73
2022/10/12 12:05:14;;;;;;;4.20;0.70;;;16.80;99.90;;;;;;4965883;28;20197;-74
2022/10/12 12:07:50;;;;;;;4.65;0.70;;;16.80;99.90;;;;;;4967492;28;20243;-82
2022/10/12 12:11:05;;;;;;;3.80;0.80;;;16.80;99.90;;;;;;4966458;28;20199;-72
2022/10/12 12:13:36;;;;;;;2.17;0.60;;;16.80;99.90;;;;;;4966736;28;20217;-74
2022/10/12 12:16:24;;;;;;;6.65;1.42;;;16.80;99.90;;;;;;4969201;28;20636;-74
2022/10/12 12:19:17;;;;;;;5.00;0.70;;;16.70;99.90;;;;;;4947494;28;20244;-74
2022/10/12 12:22:32;;;;;;;4.38;0.60;;;16.70;99.90;;;;;;4964281;28;20218;-72
2022/10/12 12:25:21;;;;;;;5.57;0.50;;;16.70;99.90;;;;;;4972392;28;20202;-76
2022/10/12 12:27:54;;;;;;;3.92;0.60;;;16.70;99.90;;;;;;4965528;28;20210;-69
2022/10/12 12:30:29;;;;;;;3.20;0.50;;;16.70;99.90;;;;;;4963545;28;20203;-72
2022/10/12 12:33:01;;;;;;;5.30;0.70;;;16.70;99.90;;;;;;4959883;28;20232;-76
2022/10/12 12:35:40;;;;;;;3.20;0.63;;;16.70;99.90;;;;;;4967584;28;20304;-72
2022/10/12 12:38:26;;;;;;;5.00;0.80;;;16.70;99.90;;;;;;4967827;28;20612;-73
2022/10/12 12:41:08;;;;;;;4.10;0.60;;;16.70;99.90;;;;;;4966756;28;20199;-72
2022/10/12 12:43:57;;;;;;;2.88;0.40;;;16.70;99.90;;;;;;4967353;28;20628;-72
2022/10/12 12:46:47;;;;;;;3.72;0.70;;;16.70;99.90;;;;;;4968228;28;20209;-71
2022/10/12 12:49:40;;;;;;;1.80;0.50;;;16.60;99.90;;;;;;4964348;28;20197;-77
2022/10/12 12:52:20;;;;;;;6.43;1.00;;;16.70;99.90;;;;;;4967776;28;20200;-72
2022/10/12 12:55:29;;;;;;;4.95;0.55;;;16.60;99.90;;;;;;4965333;28;20223;-72
2022/10/12 12:58:33;;;;;;;4.35;0.60;;;16.60;99.90;;;;;;4877717;29;20199;-73
2022/10/12 13:01:23;;;;;;;2.75;0.60;;;16.50;99.90;;;;;;4943560;28;20208;-73
2022/10/12 13:04:32;;;;;;;3.03;0.73;;;16.50;99.90;;;;;;4963964;28;20215;-75
2022/10/12 13:07:55;;;;;;;3.75;0.60;;;16.50;99.90;;;;;;4944969;28;20675;-72
2022/10/12 13:10:40;;;;;;;3.72;0.63;;;16.40;99.90;;;;;;4894029;29;20199;-71
2022/10/12 13:13:44;;;;;;;5.25;0.80;;;16.40;99.90;;;;;;4898384;29;20431;-72
2022/10/12 13:16:31;;;;;;;4.55;0.70;;;16.40;99.90;;;;;;4964933;28;20199;-72
2022/10/12 13:19:07;;;;;;;4.75;0.57;;;16.40;99.90;;;;;;4971840;28;20655;-74
2022/10/12 13:21:42;;;;;;;3.40;0.60;;;16.40;99.90;;;;;;4961924;28;20201;-72
2022/10/12 13:24:22;;;;;;;4.88;0.80;;;16.30;99.90;;;;;;4966512;28;20693;-72
2022/10/12 13:26:55;;;;;;;3.08;0.57;;;16.30;99.90;;;;;;4962421;28;20735;-71
2022/10/12 13:29:35;;;;;;;5.00;0.73;;;16.30;99.90;;;;;;4962080;28;20197;-72
2022/10/12 13:32:12;;;;;;;3.05;0.50;;;16.30;99.90;;;;;;4968946;28;20567;-72